sensor_id;sensor_type;location;lat;lon;timestamp;P1;durP1;ratioP1;P2;durP2;ratioP2
46721;SDS011;32455;43.430;23.136;2022-10-15T00:01:29;8.13;;;5.63;;
46721;SDS011;32455;43.430;23.136;2022-10-15T00:04:14;6.45;;;5.28;;
46721;SDS011;32455;43.430;23.136;2022-10-15T00:07:00;6.43;;;5.18;;
46721;SDS011;32455;43.430;23.136;2022-10-15T00:09:45;7.13;;;5.80;;
46721;SDS011;32455;43.430;23.136;2022-10-15T00:12:30;9.88;;;6.63;;
46721;SDS011;32455;43.430;23.136;2022-10-15T00:15:18;9.02;;;6.03;;
46721;SDS011;32455;43.430;23.136;2022-10-15T00:18:04;10.18;;;6.75;;
46721;SDS011;32455;43.430;23.136;2022-10-15T00:20:49;6.90;;;5.72;;
46721;SDS011;32455;43.430;23.136;2022-10-15T00:23:36;7.97;;;5.55;;
46721;SDS011;32455;43.430;23.136;2022-10-15T00:26:23;6.97;;;5.20;;
46721;SDS011;32455;43.430;23.136;2022-10-15T00:29:13;11.23;;;5.80;;
46721;SDS011;32455;43.430;23.136;2022-10-15T00:31:58;8.77;;;5.80;;
46721;SDS011;32455;43.430;23.136;2022-10-15T00:34:44;11.23;;;5.88;;
46721;SDS011;32455;43.430;23.136;2022-10-15T00:37:30;8.48;;;5.53;;
46721;SDS011;32455;43.430;23.136;2022-10-15T00:40:15;8.18;;;5.97;;
46721;SDS011;32455;43.430;23.136;2022-10-15T00:43:00;9.38;;;6.07;;
46721;SDS011;32455;43.430;23.136;2022-10-15T00:45:46;6.93;;;5.90;;
46721;SDS011;32455;43.430;23.136;2022-10-15T00:48:31;11.35;;;6.45;;
46721;SDS011;32455;43.430;23.136;2022-10-15T00:51:17;8.43;;;5.65;;
46721;SDS011;32455;43.430;23.136;2022-10-15T00:54:05;9.13;;;6.10;;
46721;SDS011;32455;43.430;23.136;2022-10-15T00:56:50;8.40;;;6.30;;
46721;SDS011;32455;43.430;23.136;2022-10-15T00:59:38;11.95;;;7.10;;
46721;SDS011;32455;43.430;23.136;2022-10-15T01:02:28;10.38;;;6.45;;
46721;SDS011;32455;43.430;23.136;2022-10-15T01:05:12;7.43;;;6.40;;
46721;SDS011;32455;43.430;23.136;2022-10-15T01:07:59;9.18;;;6.72;;
46721;SDS011;32455;43.430;23.136;2022-10-15T01:10:49;10.50;;;6.40;;
46721;SDS011;32455;43.430;23.136;2022-10-15T01:17:04;6.78;;;6.10;;
46721;SDS011;32455;43.430;23.136;2022-10-15T01:29:33;11.52;;;6.63;;
46721;SDS011;32455;43.430;23.136;2022-10-15T01:32:33;9.25;;;6.50;;
46721;SDS011;32455;43.430;23.136;2022-10-15T01:35:31;9.98;;;5.88;;
46721;SDS011;32455;43.430;23.136;2022-10-15T01:41:46;10.30;;;6.40;;
46721;SDS011;32455;43.430;23.136;2022-10-15T01:44:38;7.93;;;6.15;;
46721;SDS011;32455;43.430;23.136;2022-10-15T01:47:31;10.38;;;6.25;;
46721;SDS011;32455;43.430;23.136;2022-10-15T01:50:22;9.50;;;6.30;;
46721;SDS011;32455;43.430;23.136;2022-10-15T01:53:10;9.90;;;6.60;;
46721;SDS011;32455;43.430;23.136;2022-10-15T01:56:03;7.80;;;6.20;;
46721;SDS011;32455;43.430;23.136;2022-10-15T01:58:53;7.60;;;6.25;;
46721;SDS011;32455;43.430;23.136;2022-10-15T02:01:42;9.55;;;7.15;;
46721;SDS011;32455;43.430;23.136;2022-10-15T02:04:29;12.70;;;6.68;;
46721;SDS011;32455;43.430;23.136;2022-10-15T02:07:28;7.10;;;6.38;;
46721;SDS011;32455;43.430;23.136;2022-10-15T02:10:30;8.55;;;6.80;;
46721;SDS011;32455;43.430;23.136;2022-10-15T02:19:51;8.98;;;6.30;;
46721;SDS011;32455;43.430;23.136;2022-10-15T02:22:45;11.13;;;6.05;;
46721;SDS011;32455;43.430;23.136;2022-10-15T02:25:38;7.75;;;5.97;;
46721;SDS011;32455;43.430;23.136;2022-10-15T02:28:26;9.75;;;6.32;;
46721;SDS011;32455;43.430;23.136;2022-10-15T02:31:15;7.93;;;6.20;;
46721;SDS011;32455;43.430;23.136;2022-10-15T02:34:05;7.40;;;6.22;;
46721;SDS011;32455;43.430;23.136;2022-10-15T02:36:53;8.73;;;5.90;;
46721;SDS011;32455;43.430;23.136;2022-10-15T02:39:40;7.20;;;5.95;;
46721;SDS011;32455;43.430;23.136;2022-10-15T02:42:26;12.68;;;6.45;;
46721;SDS011;32455;43.430;23.136;2022-10-15T02:45:12;11.07;;;6.10;;
46721;SDS011;32455;43.430;23.136;2022-10-15T02:47:57;7.82;;;6.22;;
46721;SDS011;32455;43.430;23.136;2022-10-15T02:50:43;7.25;;;5.85;;
46721;SDS011;32455;43.430;23.136;2022-10-15T02:53:29;8.50;;;6.00;;
46721;SDS011;32455;43.430;23.136;2022-10-15T02:56:14;8.63;;;6.40;;
46721;SDS011;32455;43.430;23.136;2022-10-15T02:59:00;9.23;;;6.55;;
46721;SDS011;32455;43.430;23.136;2022-10-15T03:01:45;7.78;;;5.90;;
46721;SDS011;32455;43.430;23.136;2022-10-15T03:04:31;9.05;;;6.47;;
46721;SDS011;32455;43.430;23.136;2022-10-15T03:07:16;11.63;;;6.90;;
46721;SDS011;32455;43.430;23.136;2022-10-15T03:10:01;10.50;;;6.90;;
46721;SDS011;32455;43.430;23.136;2022-10-15T03:12:45;12.18;;;6.65;;
46721;SDS011;32455;43.430;23.136;2022-10-15T03:15:31;7.40;;;6.60;;
46721;SDS011;32455;43.430;23.136;2022-10-15T03:18:17;10.35;;;6.55;;
46721;SDS011;32455;43.430;23.136;2022-10-15T03:21:02;11.80;;;6.88;;
46721;SDS011;32455;43.430;23.136;2022-10-15T03:23:48;6.72;;;6.05;;
46721;SDS011;32455;43.430;23.136;2022-10-15T03:26:33;9.55;;;6.47;;
46721;SDS011;32455;43.430;23.136;2022-10-15T03:29:19;8.25;;;5.88;;
46721;SDS011;32455;43.430;23.136;2022-10-15T03:32:04;9.75;;;6.03;;
46721;SDS011;32455;43.430;23.136;2022-10-15T03:34:50;7.88;;;6.00;;
46721;SDS011;32455;43.430;23.136;2022-10-15T03:37:35;7.28;;;5.88;;
46721;SDS011;32455;43.430;23.136;2022-10-15T03:40:21;7.10;;;6.38;;
46721;SDS011;32455;43.430;23.136;2022-10-15T03:43:07;9.95;;;6.25;;
46721;SDS011;32455;43.430;23.136;2022-10-15T03:45:52;8.02;;;6.32;;
46721;SDS011;32455;43.430;23.136;2022-10-15T03:48:38;8.93;;;6.72;;
46721;SDS011;32455;43.430;23.136;2022-10-15T03:51:23;11.48;;;6.65;;
46721;SDS011;32455;43.430;23.136;2022-10-15T03:54:09;9.18;;;5.93;;
46721;SDS011;32455;43.430;23.136;2022-10-15T03:56:55;9.05;;;6.03;;
46721;SDS011;32455;43.430;23.136;2022-10-15T03:59:41;10.77;;;6.80;;
46721;SDS011;32455;43.430;23.136;2022-10-15T04:02:29;9.85;;;6.55;;
46721;SDS011;32455;43.430;23.136;2022-10-15T04:05:15;10.35;;;7.32;;
46721;SDS011;32455;43.430;23.136;2022-10-15T04:08:01;9.23;;;6.70;;
46721;SDS011;32455;43.430;23.136;2022-10-15T04:10:49;7.07;;;6.35;;
46721;SDS011;32455;43.430;23.136;2022-10-15T04:13:35;9.38;;;7.00;;
46721;SDS011;32455;43.430;23.136;2022-10-15T04:16:20;10.93;;;6.85;;
46721;SDS011;32455;43.430;23.136;2022-10-15T04:19:06;7.60;;;5.88;;
46721;SDS011;32455;43.430;23.136;2022-10-15T04:21:52;7.78;;;5.75;;
46721;SDS011;32455;43.430;23.136;2022-10-15T04:24:37;9.77;;;6.20;;
46721;SDS011;32455;43.430;23.136;2022-10-15T04:27:23;6.72;;;6.03;;
46721;SDS011;32455;43.430;23.136;2022-10-15T04:30:09;7.88;;;6.07;;
46721;SDS011;32455;43.430;23.136;2022-10-15T04:32:55;8.27;;;5.70;;
46721;SDS011;32455;43.430;23.136;2022-10-15T04:35:41;10.80;;;6.80;;
46721;SDS011;32455;43.430;23.136;2022-10-15T04:38:27;7.45;;;6.10;;
46721;SDS011;32455;43.430;23.136;2022-10-15T04:41:13;8.43;;;6.72;;
46721;SDS011;32455;43.430;23.136;2022-10-15T04:43:59;9.88;;;6.07;;
46721;SDS011;32455;43.430;23.136;2022-10-15T04:46:44;7.88;;;6.90;;
46721;SDS011;32455;43.430;23.136;2022-10-15T04:49:29;11.13;;;6.65;;
46721;SDS011;32455;43.430;23.136;2022-10-15T04:52:15;8.10;;;6.53;;
46721;SDS011;32455;43.430;23.136;2022-10-15T04:55:00;7.70;;;6.25;;
46721;SDS011;32455;43.430;23.136;2022-10-15T04:57:47;8.38;;;6.00;;
46721;SDS011;32455;43.430;23.136;2022-10-15T05:00:33;6.95;;;5.60;;
46721;SDS011;32455;43.430;23.136;2022-10-15T05:03:18;7.50;;;5.95;;
46721;SDS011;32455;43.430;23.136;2022-10-15T05:06:04;9.52;;;6.63;;
46721;SDS011;32455;43.430;23.136;2022-10-15T05:08:52;7.50;;;6.28;;
46721;SDS011;32455;43.430;23.136;2022-10-15T05:11:37;7.57;;;6.47;;
46721;SDS011;32455;43.430;23.136;2022-10-15T05:14:23;9.25;;;6.65;;
46721;SDS011;32455;43.430;23.136;2022-10-15T05:17:09;8.82;;;6.93;;
46721;SDS011;32455;43.430;23.136;2022-10-15T05:19:55;10.20;;;6.72;;
46721;SDS011;32455;43.430;23.136;2022-10-15T05:22:40;13.45;;;7.57;;
46721;SDS011;32455;43.430;23.136;2022-10-15T05:25:26;13.80;;;9.77;;
46721;SDS011;32455;43.430;23.136;2022-10-15T05:28:11;11.27;;;8.25;;
46721;SDS011;32455;43.430;23.136;2022-10-15T05:31:07;10.13;;;8.07;;
46721;SDS011;32455;43.430;23.136;2022-10-15T05:34:04;16.75;;;7.75;;
46721;SDS011;32455;43.430;23.136;2022-10-15T05:36:50;12.00;;;8.20;;
46721;SDS011;32455;43.430;23.136;2022-10-15T05:39:35;10.65;;;8.40;;
46721;SDS011;32455;43.430;23.136;2022-10-15T05:42:21;12.15;;;8.43;;
46721;SDS011;32455;43.430;23.136;2022-10-15T05:45:06;14.48;;;9.15;;
46721;SDS011;32455;43.430;23.136;2022-10-15T05:47:55;13.05;;;8.55;;
46721;SDS011;32455;43.430;23.136;2022-10-15T05:50:41;13.57;;;9.30;;
46721;SDS011;32455;43.430;23.136;2022-10-15T05:53:26;11.35;;;8.98;;
46721;SDS011;32455;43.430;23.136;2022-10-15T05:56:13;11.80;;;8.45;;
46721;SDS011;32455;43.430;23.136;2022-10-15T05:58:59;12.23;;;9.02;;
46721;SDS011;32455;43.430;23.136;2022-10-15T06:01:45;14.38;;;8.63;;
46721;SDS011;32455;43.430;23.136;2022-10-15T06:04:31;11.73;;;8.82;;
46721;SDS011;32455;43.430;23.136;2022-10-15T06:07:16;12.55;;;8.65;;
46721;SDS011;32455;43.430;23.136;2022-10-15T06:10:02;13.95;;;8.38;;
46721;SDS011;32455;43.430;23.136;2022-10-15T06:12:49;13.73;;;8.35;;
46721;SDS011;32455;43.430;23.136;2022-10-15T06:15:37;12.10;;;7.80;;
46721;SDS011;32455;43.430;23.136;2022-10-15T06:18:24;11.27;;;8.02;;
46721;SDS011;32455;43.430;23.136;2022-10-15T06:21:10;16.13;;;8.65;;
46721;SDS011;32455;43.430;23.136;2022-10-15T06:23:58;12.68;;;7.82;;
46721;SDS011;32455;43.430;23.136;2022-10-15T06:26:44;11.52;;;7.85;;
46721;SDS011;32455;43.430;23.136;2022-10-15T06:29:29;10.60;;;7.63;;
46721;SDS011;32455;43.430;23.136;2022-10-15T06:32:15;10.75;;;6.97;;
46721;SDS011;32455;43.430;23.136;2022-10-15T06:35:00;12.43;;;7.03;;
46721;SDS011;32455;43.430;23.136;2022-10-15T06:37:46;11.40;;;7.07;;
46721;SDS011;32455;43.430;23.136;2022-10-15T06:40:32;10.98;;;7.13;;
46721;SDS011;32455;43.430;23.136;2022-10-15T06:43:18;8.55;;;6.13;;
46721;SDS011;32455;43.430;23.136;2022-10-15T06:46:04;7.28;;;5.93;;
46721;SDS011;32455;43.430;23.136;2022-10-15T06:48:50;10.40;;;6.32;;
46721;SDS011;32455;43.430;23.136;2022-10-15T06:51:36;11.18;;;5.88;;
46721;SDS011;32455;43.430;23.136;2022-10-15T06:54:21;7.25;;;6.15;;
46721;SDS011;32455;43.430;23.136;2022-10-15T06:57:06;13.55;;;6.00;;
46721;SDS011;32455;43.430;23.136;2022-10-15T06:59:50;6.10;;;5.47;;
46721;SDS011;32455;43.430;23.136;2022-10-15T07:02:38;11.40;;;6.13;;
46721;SDS011;32455;43.430;23.136;2022-10-15T07:05:23;8.38;;;5.60;;
46721;SDS011;32455;43.430;23.136;2022-10-15T07:08:09;12.43;;;6.25;;
46721;SDS011;32455;43.430;23.136;2022-10-15T07:10:54;12.32;;;6.28;;
46721;SDS011;32455;43.430;23.136;2022-10-15T07:13:40;8.38;;;6.63;;
46721;SDS011;32455;43.430;23.136;2022-10-15T07:16:27;8.15;;;5.20;;
46721;SDS011;32455;43.430;23.136;2022-10-15T07:19:13;6.65;;;5.20;;
46721;SDS011;32455;43.430;23.136;2022-10-15T07:21:58;7.43;;;5.57;;
46721;SDS011;32455;43.430;23.136;2022-10-15T07:24:44;9.80;;;6.07;;
46721;SDS011;32455;43.430;23.136;2022-10-15T07:27:30;9.07;;;5.57;;
46721;SDS011;32455;43.430;23.136;2022-10-15T07:30:15;8.80;;;5.47;;
46721;SDS011;32455;43.430;23.136;2022-10-15T07:33:01;9.70;;;6.13;;
46721;SDS011;32455;43.430;23.136;2022-10-15T07:35:46;9.93;;;5.95;;
46721;SDS011;32455;43.430;23.136;2022-10-15T07:38:32;8.63;;;5.65;;
46721;SDS011;32455;43.430;23.136;2022-10-15T07:41:18;7.47;;;5.03;;
46721;SDS011;32455;43.430;23.136;2022-10-15T07:44:03;9.23;;;5.70;;
46721;SDS011;32455;43.430;23.136;2022-10-15T07:46:48;8.27;;;6.07;;
46721;SDS011;32455;43.430;23.136;2022-10-15T07:49:34;8.90;;;5.90;;
46721;SDS011;32455;43.430;23.136;2022-10-15T07:52:20;6.00;;;5.20;;
46721;SDS011;32455;43.430;23.136;2022-10-15T07:55:05;7.88;;;5.82;;
46721;SDS011;32455;43.430;23.136;2022-10-15T07:57:55;8.95;;;5.22;;
46721;SDS011;32455;43.430;23.136;2022-10-15T08:00:41;8.60;;;5.43;;
46721;SDS011;32455;43.430;23.136;2022-10-15T08:03:27;10.32;;;5.63;;
46721;SDS011;32455;43.430;23.136;2022-10-15T08:06:12;8.68;;;5.20;;
46721;SDS011;32455;43.430;23.136;2022-10-15T08:09:00;9.18;;;5.70;;
46721;SDS011;32455;43.430;23.136;2022-10-15T08:11:48;5.97;;;5.38;;
46721;SDS011;32455;43.430;23.136;2022-10-15T08:14:34;10.95;;;5.53;;
46721;SDS011;32455;43.430;23.136;2022-10-15T08:17:20;7.97;;;5.90;;
46721;SDS011;32455;43.430;23.136;2022-10-15T08:20:06;12.13;;;6.05;;
46721;SDS011;32455;43.430;23.136;2022-10-15T08:22:52;11.25;;;5.80;;
46721;SDS011;32455;43.430;23.136;2022-10-15T08:25:37;7.05;;;5.10;;
46721;SDS011;32455;43.430;23.136;2022-10-15T08:28:24;9.07;;;5.55;;
46721;SDS011;32455;43.430;23.136;2022-10-15T08:31:10;7.80;;;5.15;;
46721;SDS011;32455;43.430;23.136;2022-10-15T08:33:59;9.20;;;5.80;;
46721;SDS011;32455;43.430;23.136;2022-10-15T08:36:45;9.02;;;5.88;;
46721;SDS011;32455;43.430;23.136;2022-10-15T08:39:30;5.95;;;5.30;;
46721;SDS011;32455;43.430;23.136;2022-10-15T08:42:27;8.52;;;5.38;;
46721;SDS011;32455;43.430;23.136;2022-10-15T08:45:31;11.98;;;6.07;;
46721;SDS011;32455;43.430;23.136;2022-10-15T08:48:29;10.77;;;5.03;;
46721;SDS011;32455;43.430;23.136;2022-10-15T08:51:21;10.80;;;4.65;;
46721;SDS011;32455;43.430;23.136;2022-10-15T08:54:12;10.13;;;5.17;;
46721;SDS011;32455;43.430;23.136;2022-10-15T09:00:36;6.13;;;4.35;;
46721;SDS011;32455;43.430;23.136;2022-10-15T09:03:38;6.05;;;4.28;;
46721;SDS011;32455;43.430;23.136;2022-10-15T09:06:38;6.55;;;4.90;;
46721;SDS011;32455;43.430;23.136;2022-10-15T09:09:27;8.38;;;4.78;;
46721;SDS011;32455;43.430;23.136;2022-10-15T09:15:35;4.88;;;4.38;;
46721;SDS011;32455;43.430;23.136;2022-10-15T09:18:31;6.63;;;4.53;;
46721;SDS011;32455;43.430;23.136;2022-10-15T09:21:19;9.68;;;4.70;;
46721;SDS011;32455;43.430;23.136;2022-10-15T09:24:10;5.68;;;4.20;;
46721;SDS011;32455;43.430;23.136;2022-10-15T09:27:04;9.68;;;4.47;;
46721;SDS011;32455;43.430;23.136;2022-10-15T09:30:02;5.63;;;4.05;;
46721;SDS011;32455;43.430;23.136;2022-10-15T09:36:16;8.60;;;4.43;;
46721;SDS011;32455;43.430;23.136;2022-10-15T09:42:28;5.22;;;3.72;;
46721;SDS011;32455;43.430;23.136;2022-10-15T09:45:25;7.97;;;3.80;;
46721;SDS011;32455;43.430;23.136;2022-10-15T09:48:14;5.47;;;3.35;;
46721;SDS011;32455;43.430;23.136;2022-10-15T09:51:05;10.27;;;3.83;;
46721;SDS011;32455;43.430;23.136;2022-10-15T09:54:08;5.72;;;3.53;;
46721;SDS011;32455;43.430;23.136;2022-10-15T09:57:10;4.10;;;3.70;;
46721;SDS011;32455;43.430;23.136;2022-10-15T09:59:58;5.85;;;3.33;;
46721;SDS011;32455;43.430;23.136;2022-10-15T10:03:12;4.57;;;3.17;;
46721;SDS011;32455;43.430;23.136;2022-10-15T10:05:59;9.52;;;3.38;;
46721;SDS011;32455;43.430;23.136;2022-10-15T10:11:45;5.45;;;3.30;;
46721;SDS011;32455;43.430;23.136;2022-10-15T10:14:41;6.13;;;3.70;;
46721;SDS011;32455;43.430;23.136;2022-10-15T10:17:38;7.63;;;3.50;;
46721;SDS011;32455;43.430;23.136;2022-10-15T10:20:37;4.88;;;3.03;;
46721;SDS011;32455;43.430;23.136;2022-10-15T10:23:38;4.05;;;2.95;;
46721;SDS011;32455;43.430;23.136;2022-10-15T10:26:24;6.88;;;4.13;;
46721;SDS011;32455;43.430;23.136;2022-10-15T10:29:10;7.30;;;3.42;;
46721;SDS011;32455;43.430;23.136;2022-10-15T10:35:02;5.07;;;3.10;;
46721;SDS011;32455;43.430;23.136;2022-10-15T10:37:49;5.53;;;3.83;;
46721;SDS011;32455;43.430;23.136;2022-10-15T10:40:36;5.05;;;2.75;;
46721;SDS011;32455;43.430;23.136;2022-10-15T10:43:25;3.65;;;2.95;;
46721;SDS011;32455;43.430;23.136;2022-10-15T10:48:58;6.35;;;2.72;;
46721;SDS011;32455;43.430;23.136;2022-10-15T10:51:47;4.00;;;2.65;;
46721;SDS011;32455;43.430;23.136;2022-10-15T10:54:33;4.40;;;2.53;;
46721;SDS011;32455;43.430;23.136;2022-10-15T10:57:20;10.20;;;3.35;;
46721;SDS011;32455;43.430;23.136;2022-10-15T11:00:19;5.15;;;2.83;;
46721;SDS011;32455;43.430;23.136;2022-10-15T11:12:37;4.00;;;2.33;;
46721;SDS011;32455;43.430;23.136;2022-10-15T11:15:48;4.60;;;2.40;;
46721;SDS011;32455;43.430;23.136;2022-10-15T11:22:01;3.33;;;2.40;;
46721;SDS011;32455;43.430;23.136;2022-10-15T11:25:02;3.28;;;2.08;;
46721;SDS011;32455;43.430;23.136;2022-10-15T11:31:21;5.30;;;2.65;;
46721;SDS011;32455;43.430;23.136;2022-10-15T11:38:04;3.80;;;2.95;;
46721;SDS011;32455;43.430;23.136;2022-10-15T11:41:14;4.32;;;2.40;;
46721;SDS011;32455;43.430;23.136;2022-10-15T11:44:27;6.68;;;2.55;;
46721;SDS011;32455;43.430;23.136;2022-10-15T11:51:21;4.00;;;2.40;;
46721;SDS011;32455;43.430;23.136;2022-10-15T11:56:57;4.82;;;2.47;;
46721;SDS011;32455;43.430;23.136;2022-10-15T11:59:51;2.63;;;2.20;;
46721;SDS011;32455;43.430;23.136;2022-10-15T12:02:45;4.97;;;2.20;;
46721;SDS011;32455;43.430;23.136;2022-10-15T12:05:34;6.40;;;2.38;;
46721;SDS011;32455;43.430;23.136;2022-10-15T12:08:25;3.22;;;2.60;;
46721;SDS011;32455;43.430;23.136;2022-10-15T12:11:17;3.15;;;2.28;;
46721;SDS011;32455;43.430;23.136;2022-10-15T12:21:25;3.53;;;2.08;;
46721;SDS011;32455;43.430;23.136;2022-10-15T12:27:29;2.88;;;2.55;;
46721;SDS011;32455;43.430;23.136;2022-10-15T12:30:20;3.25;;;2.15;;
46721;SDS011;32455;43.430;23.136;2022-10-15T12:34:19;4.10;;;2.15;;
46721;SDS011;32455;43.430;23.136;2022-10-15T12:36:41;6.07;;;2.22;;
46721;SDS011;32455;43.430;23.136;2022-10-15T12:39:26;2.38;;;1.67;;
46721;SDS011;32455;43.430;23.136;2022-10-15T12:42:19;3.63;;;2.22;;
46721;SDS011;32455;43.430;23.136;2022-10-15T12:45:53;2.47;;;2.03;;
46721;SDS011;32455;43.430;23.136;2022-10-15T12:48:37;3.20;;;2.00;;
46721;SDS011;32455;43.430;23.136;2022-10-15T13:03:16;2.00;;;1.70;;
46721;SDS011;32455;43.430;23.136;2022-10-15T13:11:55;2.60;;;1.67;;
46721;SDS011;32455;43.430;23.136;2022-10-15T13:14:46;2.35;;;1.70;;
46721;SDS011;32455;43.430;23.136;2022-10-15T13:17:39;1.95;;;1.42;;
46721;SDS011;32455;43.430;23.136;2022-10-15T13:20:29;4.68;;;1.55;;
46721;SDS011;32455;43.430;23.136;2022-10-15T13:23:23;2.38;;;1.60;;
46721;SDS011;32455;43.430;23.136;2022-10-15T13:29:00;5.25;;;1.85;;
46721;SDS011;32455;43.430;23.136;2022-10-15T13:31:45;3.90;;;1.42;;
46721;SDS011;32455;43.430;23.136;2022-10-15T13:34:32;2.65;;;1.77;;
46721;SDS011;32455;43.430;23.136;2022-10-15T13:37:23;1.48;;;1.27;;
46721;SDS011;32455;43.430;23.136;2022-10-15T13:43:18;1.65;;;1.17;;
46721;SDS011;32455;43.430;23.136;2022-10-15T13:46:09;1.90;;;1.30;;
46721;SDS011;32455;43.430;23.136;2022-10-15T13:49:03;3.17;;;1.50;;
46721;SDS011;32455;43.430;23.136;2022-10-15T13:51:56;1.40;;;1.20;;
46721;SDS011;32455;43.430;23.136;2022-10-15T13:54:44;2.05;;;1.20;;
46721;SDS011;32455;43.430;23.136;2022-10-15T13:57:30;5.10;;;1.80;;
46721;SDS011;32455;43.430;23.136;2022-10-15T14:00:21;8.68;;;4.43;;
46721;SDS011;32455;43.430;23.136;2022-10-15T14:12:05;3.38;;;1.92;;
46721;SDS011;32455;43.430;23.136;2022-10-15T14:14:52;8.15;;;2.22;;
46721;SDS011;32455;43.430;23.136;2022-10-15T14:17:38;2.63;;;1.40;;
46721;SDS011;32455;43.430;23.136;2022-10-15T14:20:24;1.55;;;1.45;;
46721;SDS011;32455;43.430;23.136;2022-10-15T14:23:15;1.80;;;1.42;;
46721;SDS011;32455;43.430;23.136;2022-10-15T14:26:05;4.30;;;1.38;;
46721;SDS011;32455;43.430;23.136;2022-10-15T14:28:51;8.68;;;1.60;;
46721;SDS011;32455;43.430;23.136;2022-10-15T14:31:40;2.03;;;1.27;;
46721;SDS011;32455;43.430;23.136;2022-10-15T14:40:16;2.05;;;1.52;;
46721;SDS011;32455;43.430;23.136;2022-10-15T14:43:16;4.72;;;2.40;;
46721;SDS011;32455;43.430;23.136;2022-10-15T14:46:03;5.07;;;3.22;;
46721;SDS011;32455;43.430;23.136;2022-10-15T14:48:51;5.03;;;2.78;;
46721;SDS011;32455;43.430;23.136;2022-10-15T14:51:36;4.47;;;2.20;;
46721;SDS011;32455;43.430;23.136;2022-10-15T14:54:26;5.20;;;3.38;;
46721;SDS011;32455;43.430;23.136;2022-10-15T14:57:19;8.88;;;6.90;;
46721;SDS011;32455;43.430;23.136;2022-10-15T15:03:18;21.58;;;11.77;;
46721;SDS011;32455;43.430;23.136;2022-10-15T15:06:05;8.10;;;5.43;;
46721;SDS011;32455;43.430;23.136;2022-10-15T15:08:52;20.20;;;8.77;;
46721;SDS011;32455;43.430;23.136;2022-10-15T15:11:37;38.45;;;17.98;;
46721;SDS011;32455;43.430;23.136;2022-10-15T15:14:25;12.55;;;7.13;;
46721;SDS011;32455;43.430;23.136;2022-10-15T15:17:14;8.25;;;4.03;;
46721;SDS011;32455;43.430;23.136;2022-10-15T15:20:02;4.75;;;2.30;;
46721;SDS011;32455;43.430;23.136;2022-10-15T15:22:48;3.83;;;2.45;;
46721;SDS011;32455;43.430;23.136;2022-10-15T15:25:35;5.70;;;3.83;;
46721;SDS011;32455;43.430;23.136;2022-10-15T15:28:22;6.53;;;4.78;;
46721;SDS011;32455;43.430;23.136;2022-10-15T15:31:12;8.80;;;5.47;;
46721;SDS011;32455;43.430;23.136;2022-10-15T15:34:00;11.82;;;7.15;;
46721;SDS011;32455;43.430;23.136;2022-10-15T15:36:45;7.10;;;5.53;;
46721;SDS011;32455;43.430;23.136;2022-10-15T15:39:32;5.95;;;3.72;;
46721;SDS011;32455;43.430;23.136;2022-10-15T15:42:19;6.65;;;3.83;;
46721;SDS011;32455;43.430;23.136;2022-10-15T15:45:10;15.88;;;7.88;;
46721;SDS011;32455;43.430;23.136;2022-10-15T15:48:03;55.47;;;25.20;;
46721;SDS011;32455;43.430;23.136;2022-10-15T15:50:50;59.15;;;28.08;;
46721;SDS011;32455;43.430;23.136;2022-10-15T15:53:43;88.32;;;36.65;;
46721;SDS011;32455;43.430;23.136;2022-10-15T15:56:28;13.82;;;9.70;;
46721;SDS011;32455;43.430;23.136;2022-10-15T15:59:14;9.18;;;7.50;;
46721;SDS011;32455;43.430;23.136;2022-10-15T16:05:06;7.00;;;3.90;;
46721;SDS011;32455;43.430;23.136;2022-10-15T16:07:53;5.28;;;3.10;;
46721;SDS011;32455;43.430;23.136;2022-10-15T16:10:41;4.03;;;2.75;;
46721;SDS011;32455;43.430;23.136;2022-10-15T16:13:27;5.68;;;2.83;;
46721;SDS011;32455;43.430;23.136;2022-10-15T16:16:12;7.07;;;3.20;;
46721;SDS011;32455;43.430;23.136;2022-10-15T16:18:57;5.10;;;3.13;;
46721;SDS011;32455;43.430;23.136;2022-10-15T16:21:43;3.63;;;3.20;;
46721;SDS011;32455;43.430;23.136;2022-10-15T16:24:28;6.63;;;4.30;;
46721;SDS011;32455;43.430;23.136;2022-10-15T16:27:13;13.45;;;8.38;;
46721;SDS011;32455;43.430;23.136;2022-10-15T16:29:58;19.60;;;11.60;;
46721;SDS011;32455;43.430;23.136;2022-10-15T16:32:43;11.98;;;7.13;;
46721;SDS011;32455;43.430;23.136;2022-10-15T16:35:29;11.23;;;6.35;;
46721;SDS011;32455;43.430;23.136;2022-10-15T16:38:15;9.68;;;5.70;;
46721;SDS011;32455;43.430;23.136;2022-10-15T16:41:01;7.60;;;4.47;;
46721;SDS011;32455;43.430;23.136;2022-10-15T16:43:47;6.10;;;3.97;;
46721;SDS011;32455;43.430;23.136;2022-10-15T16:46:33;3.38;;;2.55;;
46721;SDS011;32455;43.430;23.136;2022-10-15T16:49:19;2.50;;;2.30;;
46721;SDS011;32455;43.430;23.136;2022-10-15T16:52:04;4.20;;;2.65;;
46721;SDS011;32455;43.430;23.136;2022-10-15T16:54:49;5.63;;;2.85;;
46721;SDS011;32455;43.430;23.136;2022-10-15T16:57:35;4.03;;;2.42;;
46721;SDS011;32455;43.430;23.136;2022-10-15T17:00:20;4.80;;;2.80;;
46721;SDS011;32455;43.430;23.136;2022-10-15T17:03:06;5.53;;;2.90;;
46721;SDS011;32455;43.430;23.136;2022-10-15T17:05:56;7.07;;;3.10;;
46721;SDS011;32455;43.430;23.136;2022-10-15T17:11:38;3.93;;;2.60;;
46721;SDS011;32455;43.430;23.136;2022-10-15T17:14:25;3.15;;;2.55;;
46721;SDS011;32455;43.430;23.136;2022-10-15T17:17:11;3.47;;;2.72;;
46721;SDS011;32455;43.430;23.136;2022-10-15T17:19:57;9.00;;;2.92;;
46721;SDS011;32455;43.430;23.136;2022-10-15T17:22:42;3.75;;;2.75;;
46721;SDS011;32455;43.430;23.136;2022-10-15T17:25:28;3.25;;;2.88;;
46721;SDS011;32455;43.430;23.136;2022-10-15T17:28:13;7.78;;;3.28;;
46721;SDS011;32455;43.430;23.136;2022-10-15T17:31:06;3.47;;;3.08;;
46721;SDS011;32455;43.430;23.136;2022-10-15T17:33:54;5.88;;;2.97;;
46721;SDS011;32455;43.430;23.136;2022-10-15T17:36:43;4.97;;;2.90;;
46721;SDS011;32455;43.430;23.136;2022-10-15T17:39:31;6.00;;;3.15;;
46721;SDS011;32455;43.430;23.136;2022-10-15T17:42:19;4.07;;;3.63;;
46721;SDS011;32455;43.430;23.136;2022-10-15T17:45:05;4.47;;;3.55;;
46721;SDS011;32455;43.430;23.136;2022-10-15T17:47:51;5.68;;;2.97;;
46721;SDS011;32455;43.430;23.136;2022-10-15T17:50:37;3.20;;;2.65;;
46721;SDS011;32455;43.430;23.136;2022-10-15T17:53:23;4.38;;;3.22;;
46721;SDS011;32455;43.430;23.136;2022-10-15T17:56:11;5.90;;;3.42;;
46721;SDS011;32455;43.430;23.136;2022-10-15T17:59:00;3.95;;;3.20;;
46721;SDS011;32455;43.430;23.136;2022-10-15T18:01:48;4.97;;;3.35;;
46721;SDS011;32455;43.430;23.136;2022-10-15T18:04:33;3.72;;;3.20;;
46721;SDS011;32455;43.430;23.136;2022-10-15T18:07:22;6.68;;;3.13;;
46721;SDS011;32455;43.430;23.136;2022-10-15T18:10:07;5.85;;;3.20;;
46721;SDS011;32455;43.430;23.136;2022-10-15T18:12:55;4.40;;;3.30;;
46721;SDS011;32455;43.430;23.136;2022-10-15T18:15:45;5.43;;;3.13;;
46721;SDS011;32455;43.430;23.136;2022-10-15T18:18:34;5.22;;;3.83;;
46721;SDS011;32455;43.430;23.136;2022-10-15T18:21:21;5.00;;;3.63;;
46721;SDS011;32455;43.430;23.136;2022-10-15T18:24:08;4.10;;;3.65;;
46721;SDS011;32455;43.430;23.136;2022-10-15T18:26:53;4.63;;;3.08;;
46721;SDS011;32455;43.430;23.136;2022-10-15T18:29:38;4.07;;;3.20;;
46721;SDS011;32455;43.430;23.136;2022-10-15T18:32:24;4.43;;;3.17;;
46721;SDS011;32455;43.430;23.136;2022-10-15T18:35:09;4.78;;;3.05;;
46721;SDS011;32455;43.430;23.136;2022-10-15T18:37:54;4.85;;;3.53;;
46721;SDS011;32455;43.430;23.136;2022-10-15T18:40:38;6.03;;;3.28;;
46721;SDS011;32455;43.430;23.136;2022-10-15T18:43:24;5.00;;;3.58;;
46721;SDS011;32455;43.430;23.136;2022-10-15T18:46:09;6.03;;;3.83;;